General Aviation Weather

Text Reports

Enter one or more of the following location identifiers separated by a space:

Zip Code, Four-Character ICAO or Three-Character IATA airport codes.

METAR - Aviation Routine Weather Report
KASJ - Ahoskie, North Carolina
Updated at 9:35 PM GMT on July 07, 2015 (5:35 PM EDT):
METAR KASJ 072135Z AUTO 00000KT 10SM CLR 31/23 A3005 RMK AO2 T03120227
TAF - Terminal Area Forecast
KASJ - Ahoskie, North Carolina
Updated at 9:35 PM GMT on July 07, 2015 (5:35 PM EDT):
No TAF is currently available for this location.
Decoded:
No decoded TAF is available.
PIREP - Pilot Weather Report
KASJ - Ahoskie, North Carolina
Updated at 9:35 PM GMT on July 07, 2015 (5:35 PM EDT):
No PIREP is currently available for this location.
AIRMET - Airmens Meteorological Information
KASJ - Ahoskie, North Carolina
Updated at 9:35 PM GMT on July 07, 2015 (5:35 PM EDT):
No AIRMET is currently available for this location.
SIGMET - Significant Meteorological Information
KASJ - Ahoskie, North Carolina
Updated at 9:35 PM GMT on July 07, 2015 (5:35 PM EDT):
No SIGMET is currently available for this location.
NOTAM - Notice to Airmen
KASJ - Ahoskie, North Carolina
Updated at 9:35 PM GMT on July 07, 2015 (5:35 PM EDT):
No NOTAM is currently available for this location.
Forecast Area
KASJ - Ahoskie, North Carolina
Updated at 9:35 PM GMT on July 07, 2015 (5:35 PM EDT):
No NOTAM is currently available for this location.
Aviation Weather Maps